BAW542W EGLL-LIPE
Flight info
| Callsign | BAW542W |
|---|---|
| Flight time | 1h 57m |
| Altitude | 37000 |
| Route | DET L6 DVR UL9 KONAN DCT KOK DCT SISGA DCT RITAX DCT KRH DCT TEDGO DCT BATUB DCT TIRUL M738 NATAG DCT LORLO DCT RENTA DCT UNTAD DCT NEGIK DCT ADOSA/N0378F190 M738 BENUS |
| Aircraft | A320/M-SDE3FGHIRWY/LB1 |
Departure
| Time | 2026-05-06 09:54 |
|---|---|
| Airport | London Heathrow Airport (EGLL) |
Arrival
| Time | 2026-05-06 11:51 |
|---|---|
| Airport | Bologna Guglielmo Marconi Airport (LIPE) |
| Time | Latitude | Longitude | Altitude | Speed | Heading |
|---|---|---|---|---|---|
| 2026-05-06 09:18 | 51.47188 | -0.48589 | 86 ft | 0 kts | 269° |
| 2026-05-06 09:39 | 51.47188 | -0.48587 | 86 ft | 2 kts | 269° |
| 2026-05-06 09:39 | 51.47188 | -0.48556 | 86 ft | 3 kts | 269° |
| 2026-05-06 09:40 | 51.47188 | -0.48528 | 86 ft | 2 kts | 269° |
| 2026-05-06 09:40 | 51.47190 | -0.48498 | 86 ft | 3 kts | 244° |
| 2026-05-06 09:40 | 51.47218 | -0.48473 | 89 ft | 3 kts | 179° |
| 2026-05-06 09:41 | 51.47227 | -0.48473 | 86 ft | 0 kts | 179° |
| 2026-05-06 09:44 | 51.47226 | -0.48473 | 86 ft | 3 kts | 180° |
| 2026-05-06 09:44 | 51.47173 | -0.48473 | 89 ft | 11 kts | 180° |
| 2026-05-06 09:45 | 51.47083 | -0.48472 | 89 ft | 15 kts | 180° |
| 2026-05-06 09:45 | 51.46970 | -0.48471 | 88 ft | 17 kts | 179° |
| 2026-05-06 09:45 | 51.46918 | -0.48469 | 89 ft | 0 kts | 179° |
| 2026-05-06 09:45 | 51.46907 | -0.48469 | 89 ft | 3 kts | 179° |
| 2026-05-06 09:46 | 51.46876 | -0.48469 | 86 ft | 6 kts | 180° |
| 2026-05-06 09:46 | 51.46830 | -0.48469 | 86 ft | 6 kts | 179° |
| 2026-05-06 09:46 | 51.46823 | -0.48469 | 86 ft | 0 kts | 179° |
| 2026-05-06 09:47 | 51.46822 | -0.48469 | 86 ft | 2 kts | 179° |
| 2026-05-06 09:47 | 51.46776 | -0.48469 | 86 ft | 10 kts | 180° |
| 2026-05-06 09:47 | 51.46691 | -0.48466 | 86 ft | 15 kts | 179° |
| 2026-05-06 09:48 | 51.46640 | -0.48466 | 86 ft | 0 kts | 180° |
| 2026-05-06 09:48 | 51.46639 | -0.48466 | 86 ft | 0 kts | 180° |
| 2026-05-06 09:49 | 51.46605 | -0.48467 | 86 ft | 5 kts | 180° |
| 2026-05-06 09:49 | 51.46592 | -0.48467 | 86 ft | 0 kts | 180° |
| 2026-05-06 09:51 | 51.46588 | -0.48467 | 86 ft | 4 kts | 180° |
| 2026-05-06 09:51 | 51.46523 | -0.48468 | 86 ft | 14 kts | 180° |
| 2026-05-06 09:51 | 51.46479 | -0.48373 | 88 ft | 2 kts | 85° |
| 2026-05-06 09:51 | 51.46479 | -0.48370 | 88 ft | 0 kts | 88° |
| 2026-05-06 09:52 | 51.46479 | -0.48368 | 87 ft | 2 kts | 88° |
| 2026-05-06 09:53 | 51.46481 | -0.48107 | 88 ft | 56 kts | 89° |
| 2026-05-06 09:53 | 51.46484 | -0.47138 | 88 ft | 114 kts | 90° |
| 2026-05-06 09:53 | 51.46489 | -0.45614 | 89 ft | 157 kts | 89° |
| 2026-05-06 09:53 | 51.46493 | -0.43798 | 515 ft | 162 kts | 85° |
| 2026-05-06 09:54 | 51.46489 | -0.41984 | 1175 ft | 167 kts | 92° |
| 2026-05-06 09:54 | 51.45997 | -0.40174 | 1541 ft | 191 kts | 123° |
| 2026-05-06 09:54 | 51.45173 | -0.38374 | 1868 ft | 208 kts | 121° |
| 2026-05-06 09:54 | 51.44329 | -0.36345 | 2196 ft | 231 kts | 119° |
| 2026-05-06 09:55 | 51.43638 | -0.33894 | 2609 ft | 251 kts | 101° |
| 2026-05-06 09:55 | 51.43252 | -0.31166 | 3571 ft | 249 kts | 98° |
| 2026-05-06 09:55 | 51.42880 | -0.28453 | 4514 ft | 252 kts | 98° |
| 2026-05-06 09:55 | 51.42489 | -0.25651 | 5230 ft | 263 kts | 97° |
| 2026-05-06 09:56 | 51.42104 | -0.22748 | 6045 ft | 268 kts | 98° |
| 2026-05-06 09:56 | 51.41702 | -0.19828 | 6946 ft | 269 kts | 99° |
| 2026-05-06 09:56 | 51.41283 | -0.16861 | 7627 ft | 280 kts | 99° |
| 2026-05-06 09:56 | 51.40861 | -0.13789 | 8400 ft | 283 kts | 99° |
| 2026-05-06 09:57 | 51.40444 | -0.10720 | 9353 ft | 281 kts | 100° |
| 2026-05-06 09:57 | 51.40021 | -0.07621 | 10063 ft | 290 kts | 100° |
| 2026-05-06 09:57 | 51.39579 | -0.04377 | 10432 ft | 308 kts | 101° |
| 2026-05-06 09:57 | 51.39079 | -0.00905 | 10618 ft | 332 kts | 101° |
| 2026-05-06 09:58 | 51.38535 | 0.02792 | 10959 ft | 347 kts | 102° |
| 2026-05-06 09:58 | 51.37979 | 0.06581 | 11596 ft | 352 kts | 102° |
| 2026-05-06 09:58 | 51.37423 | 0.10428 | 12229 ft | 357 kts | 101° |
| 2026-05-06 09:58 | 51.36867 | 0.14325 | 12852 ft | 362 kts | 102° |
| 2026-05-06 09:59 | 51.36310 | 0.18270 | 13516 ft | 365 kts | 102° |
| 2026-05-06 09:59 | 51.35752 | 0.22245 | 14152 ft | 368 kts | 102° |
| 2026-05-06 09:59 | 51.35187 | 0.26268 | 14691 ft | 373 kts | 102° |
| 2026-05-06 09:59 | 51.34613 | 0.30338 | 15245 ft | 377 kts | 102° |
| 2026-05-06 10:00 | 51.34032 | 0.34439 | 15822 ft | 380 kts | 102° |
| 2026-05-06 10:00 | 51.33444 | 0.38572 | 16366 ft | 383 kts | 102° |
| 2026-05-06 10:00 | 51.32847 | 0.42749 | 16861 ft | 388 kts | 102° |
| 2026-05-06 10:00 | 51.32242 | 0.46971 | 17543 ft | 390 kts | 102° |
| 2026-05-06 10:01 | 51.31632 | 0.51202 | 17986 ft | 392 kts | 103° |
| 2026-05-06 10:01 | 51.31016 | 0.55451 | 18072 ft | 393 kts | 103° |
| 2026-05-06 10:01 | 51.30399 | 0.59702 | 18075 ft | 393 kts | 103° |
| 2026-05-06 10:01 | 51.29722 | 0.63920 | 18066 ft | 391 kts | 105° |
| 2026-05-06 10:02 | 51.29041 | 0.68128 | 18160 ft | 394 kts | 102° |
| 2026-05-06 10:02 | 51.28480 | 0.72426 | 18635 ft | 397 kts | 100° |
| 2026-05-06 10:02 | 51.27991 | 0.76778 | 19181 ft | 399 kts | 99° |
| 2026-05-06 10:02 | 51.27531 | 0.81154 | 19699 ft | 401 kts | 99° |
| 2026-05-06 10:03 | 51.27069 | 0.85568 | 20164 ft | 405 kts | 100° |
| 2026-05-06 10:03 | 51.26594 | 0.89950 | 20654 ft | 407 kts | 100° |
| 2026-05-06 10:03 | 51.26094 | 0.94406 | 21159 ft | 409 kts | 101° |
| 2026-05-06 10:03 | 51.25570 | 0.98877 | 21632 ft | 411 kts | 101° |
| 2026-05-06 10:04 | 51.25029 | 1.03371 | 22116 ft | 413 kts | 102° |
| 2026-05-06 10:04 | 51.24481 | 1.07875 | 22621 ft | 415 kts | 102° |
| 2026-05-06 10:04 | 51.23930 | 1.12413 | 23041 ft | 418 kts | 102° |
| 2026-05-06 10:04 | 51.23375 | 1.16987 | 23468 ft | 421 kts | 102° |
| 2026-05-06 10:05 | 51.22998 | 1.20093 | 23745 ft | 423 kts | 102° |
| 2026-05-06 10:05 | 51.22439 | 1.24707 | 24130 ft | 425 kts | 102° |
| 2026-05-06 10:05 | 51.21879 | 1.29348 | 24488 ft | 428 kts | 102° |
| 2026-05-06 10:05 | 51.21313 | 1.34013 | 24892 ft | 429 kts | 102° |
| 2026-05-06 10:06 | 51.20746 | 1.38685 | 25287 ft | 430 kts | 102° |
| 2026-05-06 10:06 | 51.20171 | 1.43380 | 25643 ft | 433 kts | 102° |
| 2026-05-06 10:06 | 51.19590 | 1.48085 | 26048 ft | 433 kts | 102° |
| 2026-05-06 10:06 | 51.19007 | 1.52802 | 26447 ft | 434 kts | 102° |
| 2026-05-06 10:07 | 51.18423 | 1.57539 | 26794 ft | 437 kts | 102° |
| 2026-05-06 10:07 | 51.17835 | 1.62296 | 27171 ft | 438 kts | 102° |
| 2026-05-06 10:07 | 51.17249 | 1.67005 | 27549 ft | 440 kts | 102° |
| 2026-05-06 10:07 | 51.16650 | 1.71799 | 27895 ft | 443 kts | 102° |
| 2026-05-06 10:08 | 51.16048 | 1.76612 | 28268 ft | 444 kts | 102° |
| 2026-05-06 10:08 | 51.15438 | 1.81448 | 28635 ft | 446 kts | 102° |
| 2026-05-06 10:08 | 51.14823 | 1.86300 | 28969 ft | 448 kts | 102° |
| 2026-05-06 10:08 | 51.14202 | 1.91173 | 29342 ft | 449 kts | 102° |
| 2026-05-06 10:09 | 51.13585 | 1.96016 | 29940 ft | 445 kts | 102° |
| 2026-05-06 10:09 | 51.13042 | 2.00838 | 30451 ft | 442 kts | 98° |
| 2026-05-06 10:09 | 51.12769 | 2.05706 | 30893 ft | 441 kts | 96° |
| 2026-05-06 10:09 | 51.12514 | 2.10567 | 31303 ft | 440 kts | 96° |
| 2026-05-06 10:10 | 51.12258 | 2.15416 | 31707 ft | 439 kts | 96° |
| 2026-05-06 10:10 | 51.12000 | 2.20257 | 32117 ft | 439 kts | 95° |
| 2026-05-06 10:10 | 51.11739 | 2.25092 | 32527 ft | 438 kts | 95° |
| 2026-05-06 10:10 | 51.11476 | 2.29920 | 32922 ft | 438 kts | 95° |
| 2026-05-06 10:11 | 51.11209 | 2.34747 | 33344 ft | 437 kts | 95° |
| 2026-05-06 10:11 | 51.10939 | 2.39558 | 33746 ft | 436 kts | 95° |
| 2026-05-06 10:11 | 51.10614 | 2.44350 | 34125 ft | 435 kts | 102° |
| 2026-05-06 10:11 | 51.09700 | 2.48927 | 34398 ft | 435 kts | 114° |
| 2026-05-06 10:12 | 51.08469 | 2.53330 | 34660 ft | 436 kts | 115° |
| 2026-05-06 10:12 | 51.07215 | 2.57719 | 34915 ft | 437 kts | 115° |
| 2026-05-06 10:12 | 51.05941 | 2.62110 | 35180 ft | 438 kts | 115° |
| 2026-05-06 10:12 | 51.04659 | 2.66499 | 35441 ft | 438 kts | 116° |
| 2026-05-06 10:13 | 51.03373 | 2.70890 | 35683 ft | 439 kts | 116° |
| 2026-05-06 10:13 | 51.02088 | 2.75294 | 35930 ft | 440 kts | 116° |
| 2026-05-06 10:13 | 51.00803 | 2.79707 | 36171 ft | 440 kts | 116° |
| 2026-05-06 10:13 | 50.99521 | 2.84117 | 36439 ft | 440 kts | 116° |
| 2026-05-06 10:14 | 50.98257 | 2.88469 | 36719 ft | 440 kts | 116° |
| 2026-05-06 10:14 | 50.96978 | 2.92876 | 36886 ft | 441 kts | 117° |
| 2026-05-06 10:14 | 50.94378 | 3.01800 | 36908 ft | 449 kts | 116° |
| 2026-05-06 10:15 | 50.91739 | 3.10794 | 36903 ft | 451 kts | 117° |
| 2026-05-06 10:15 | 50.89088 | 3.19784 | 36892 ft | 451 kts | 117° |
| 2026-05-06 10:16 | 50.86427 | 3.28776 | 36888 ft | 451 kts | 117° |
| 2026-05-06 10:16 | 50.83768 | 3.37749 | 36899 ft | 450 kts | 116° |
| 2026-05-06 10:17 | 50.81101 | 3.46691 | 36898 ft | 449 kts | 117° |
| 2026-05-06 10:17 | 50.78428 | 3.55611 | 36903 ft | 449 kts | 117° |
| 2026-05-06 10:18 | 50.75753 | 3.64510 | 36901 ft | 448 kts | 117° |
| 2026-05-06 10:18 | 50.73076 | 3.73399 | 36901 ft | 448 kts | 117° |
| 2026-05-06 10:19 | 50.70393 | 3.82281 | 36884 ft | 448 kts | 117° |
| 2026-05-06 10:19 | 50.67703 | 3.91154 | 36887 ft | 449 kts | 117° |
| 2026-05-06 10:20 | 50.64997 | 4.00008 | 36885 ft | 449 kts | 117° |
| 2026-05-06 10:20 | 50.62285 | 4.08865 | 36887 ft | 449 kts | 117° |
| 2026-05-06 10:21 | 50.59588 | 4.17660 | 36884 ft | 449 kts | 117° |
| 2026-05-06 10:21 | 50.56867 | 4.26495 | 36894 ft | 448 kts | 117° |
| 2026-05-06 10:22 | 50.54143 | 4.35316 | 36904 ft | 448 kts | 117° |
| 2026-05-06 10:22 | 50.51414 | 4.44122 | 36906 ft | 448 kts | 117° |
| 2026-05-06 10:23 | 50.48674 | 4.52905 | 36906 ft | 448 kts | 118° |
| 2026-05-06 10:23 | 50.45928 | 4.61688 | 36911 ft | 448 kts | 118° |
| 2026-05-06 10:24 | 50.43180 | 4.70456 | 36872 ft | 448 kts | 118° |
| 2026-05-06 10:24 | 50.40423 | 4.79215 | 36872 ft | 448 kts | 118° |
| 2026-05-06 10:25 | 50.37663 | 4.87963 | 36870 ft | 448 kts | 118° |
| 2026-05-06 10:25 | 50.34898 | 4.96695 | 36871 ft | 448 kts | 118° |
| 2026-05-06 10:26 | 50.32120 | 5.05433 | 36865 ft | 448 kts | 118° |
| 2026-05-06 10:26 | 50.29341 | 5.14157 | 36843 ft | 448 kts | 118° |
| 2026-05-06 10:27 | 50.26554 | 5.22885 | 36842 ft | 449 kts | 119° |
| 2026-05-06 10:27 | 50.23747 | 5.31613 | 36850 ft | 450 kts | 119° |
| 2026-05-06 10:28 | 50.20924 | 5.40338 | 36852 ft | 450 kts | 119° |
| 2026-05-06 10:28 | 50.18121 | 5.48993 | 36849 ft | 450 kts | 119° |
| 2026-05-06 10:29 | 50.15292 | 5.57702 | 36842 ft | 450 kts | 119° |
| 2026-05-06 10:29 | 50.12454 | 5.66391 | 36849 ft | 450 kts | 119° |
| 2026-05-06 10:30 | 50.09615 | 5.75074 | 36839 ft | 450 kts | 119° |
| 2026-05-06 10:30 | 50.06736 | 5.83720 | 36842 ft | 449 kts | 121° |
| 2026-05-06 10:31 | 50.03632 | 5.92148 | 36836 ft | 448 kts | 123° |
| 2026-05-06 10:31 | 50.00440 | 6.00482 | 36829 ft | 448 kts | 123° |
| 2026-05-06 10:32 | 49.97280 | 6.08828 | 36819 ft | 448 kts | 123° |
| 2026-05-06 10:32 | 49.94151 | 6.17198 | 36818 ft | 448 kts | 122° |
| 2026-05-06 10:33 | 49.91026 | 6.25566 | 36805 ft | 448 kts | 123° |
| 2026-05-06 10:33 | 49.87879 | 6.33912 | 36809 ft | 448 kts | 123° |
| 2026-05-06 10:34 | 49.84725 | 6.42239 | 36786 ft | 448 kts | 123° |
| 2026-05-06 10:34 | 49.81560 | 6.50567 | 36791 ft | 448 kts | 123° |
| 2026-05-06 10:35 | 49.78389 | 6.58868 | 36768 ft | 448 kts | 123° |
| 2026-05-06 10:35 | 49.75215 | 6.67165 | 36772 ft | 448 kts | 123° |
| 2026-05-06 10:36 | 49.72064 | 6.75403 | 36761 ft | 448 kts | 123° |
| 2026-05-06 10:36 | 49.68880 | 6.83688 | 36747 ft | 449 kts | 124° |
| 2026-05-06 10:37 | 49.65684 | 6.91961 | 36764 ft | 449 kts | 124° |
| 2026-05-06 10:37 | 49.62486 | 7.00233 | 36768 ft | 449 kts | 124° |
| 2026-05-06 10:38 | 49.59277 | 7.08503 | 36783 ft | 449 kts | 124° |
| 2026-05-06 10:38 | 49.55858 | 7.16517 | 36789 ft | 444 kts | 137° |
| 2026-05-06 10:39 | 49.51412 | 7.23044 | 36789 ft | 441 kts | 140° |
| 2026-05-06 10:39 | 49.46922 | 7.29484 | 36800 ft | 441 kts | 140° |
| 2026-05-06 10:40 | 49.42434 | 7.35886 | 36799 ft | 440 kts | 140° |
| 2026-05-06 10:40 | 49.37947 | 7.42283 | 36805 ft | 440 kts | 140° |
| 2026-05-06 10:41 | 49.33467 | 7.48678 | 36805 ft | 440 kts | 140° |
| 2026-05-06 10:41 | 49.28981 | 7.55050 | 36809 ft | 440 kts | 141° |
| 2026-05-06 10:42 | 49.24491 | 7.61405 | 36779 ft | 440 kts | 141° |
| 2026-05-06 10:42 | 49.19984 | 7.67776 | 36784 ft | 442 kts | 141° |
| 2026-05-06 10:43 | 49.15463 | 7.74156 | 36790 ft | 443 kts | 141° |
| 2026-05-06 10:44 | 49.08653 | 7.83706 | 36804 ft | 444 kts | 141° |
| 2026-05-06 10:44 | 49.04108 | 7.90063 | 36818 ft | 444 kts | 141° |
| 2026-05-06 10:45 | 48.99560 | 7.96426 | 36790 ft | 444 kts | 141° |
| 2026-05-06 10:45 | 48.94996 | 8.02794 | 36794 ft | 445 kts | 141° |
| 2026-05-06 10:46 | 48.90417 | 8.09156 | 36805 ft | 446 kts | 141° |
| 2026-05-06 10:46 | 48.85824 | 8.15519 | 36814 ft | 447 kts | 141° |
| 2026-05-06 10:47 | 48.81254 | 8.21828 | 36818 ft | 447 kts | 141° |
| 2026-05-06 10:47 | 48.76642 | 8.28169 | 36821 ft | 447 kts | 142° |
| 2026-05-06 10:48 | 48.72041 | 8.34489 | 36827 ft | 446 kts | 142° |
| 2026-05-06 10:48 | 48.67450 | 8.40803 | 36824 ft | 446 kts | 142° |
| 2026-05-06 10:49 | 48.62852 | 8.47098 | 36828 ft | 445 kts | 142° |
| 2026-05-06 10:49 | 48.58257 | 8.53361 | 36834 ft | 445 kts | 142° |
| 2026-05-06 10:50 | 48.53657 | 8.59621 | 36830 ft | 445 kts | 142° |
| 2026-05-06 10:50 | 48.49061 | 8.65866 | 36820 ft | 445 kts | 142° |
| 2026-05-06 10:51 | 48.44465 | 8.72102 | 36820 ft | 444 kts | 143° |
| 2026-05-06 10:51 | 48.39870 | 8.78303 | 36829 ft | 444 kts | 143° |
| 2026-05-06 10:52 | 48.35297 | 8.84449 | 36837 ft | 443 kts | 143° |
| 2026-05-06 10:52 | 48.30696 | 8.90622 | 36829 ft | 443 kts | 143° |
| 2026-05-06 10:53 | 48.26106 | 8.96783 | 36835 ft | 442 kts | 143° |
| 2026-05-06 10:53 | 48.21566 | 9.02861 | 36809 ft | 441 kts | 143° |
| 2026-05-06 10:54 | 48.16944 | 9.09039 | 36832 ft | 440 kts | 143° |
| 2026-05-06 10:54 | 48.12366 | 9.15125 | 36837 ft | 439 kts | 143° |
| 2026-05-06 10:55 | 48.07794 | 9.21185 | 36837 ft | 439 kts | 143° |
| 2026-05-06 10:55 | 48.03968 | 9.26250 | 36829 ft | 438 kts | 143° |
| 2026-05-06 10:56 | 47.99428 | 9.32240 | 36837 ft | 438 kts | 144° |
| 2026-05-06 10:56 | 47.94865 | 9.38253 | 36813 ft | 438 kts | 144° |
| 2026-05-06 10:57 | 47.90304 | 9.44260 | 36824 ft | 437 kts | 144° |
| 2026-05-06 10:57 | 47.85738 | 9.50251 | 36828 ft | 437 kts | 144° |
| 2026-05-06 10:58 | 47.81174 | 9.56216 | 36812 ft | 437 kts | 144° |
| 2026-05-06 10:58 | 47.76596 | 9.62168 | 36816 ft | 437 kts | 144° |
| 2026-05-06 10:59 | 47.72025 | 9.68123 | 36818 ft | 437 kts | 144° |
| 2026-05-06 10:59 | 47.67448 | 9.74081 | 36799 ft | 437 kts | 144° |
| 2026-05-06 11:00 | 47.62870 | 9.80019 | 36807 ft | 437 kts | 144° |
| 2026-05-06 11:00 | 47.58290 | 9.85939 | 36808 ft | 437 kts | 144° |
| 2026-05-06 11:01 | 47.53704 | 9.91843 | 36814 ft | 437 kts | 144° |
| 2026-05-06 11:01 | 47.49120 | 9.97747 | 36815 ft | 437 kts | 144° |
| 2026-05-06 11:02 | 47.44533 | 10.03627 | 36803 ft | 436 kts | 144° |
| 2026-05-06 11:02 | 47.39944 | 10.09492 | 36788 ft | 436 kts | 145° |
| 2026-05-06 11:03 | 47.35367 | 10.15338 | 36794 ft | 435 kts | 145° |
| 2026-05-06 11:03 | 47.30786 | 10.21176 | 36786 ft | 436 kts | 145° |
| 2026-05-06 11:04 | 47.26201 | 10.27005 | 36788 ft | 436 kts | 145° |
| 2026-05-06 11:04 | 47.21607 | 10.32831 | 36784 ft | 436 kts | 145° |
| 2026-05-06 11:05 | 47.17014 | 10.38625 | 36763 ft | 436 kts | 146° |
| 2026-05-06 11:05 | 47.12407 | 10.44424 | 36772 ft | 436 kts | 146° |
| 2026-05-06 11:06 | 47.07796 | 10.50177 | 36760 ft | 433 kts | 149° |
| 2026-05-06 11:06 | 47.02602 | 10.54291 | 36778 ft | 418 kts | 167° |
| 2026-05-06 11:07 | 46.97055 | 10.56785 | 36800 ft | 418 kts | 168° |
| 2026-05-06 11:07 | 46.91497 | 10.59283 | 36803 ft | 418 kts | 168° |
| 2026-05-06 11:08 | 46.85935 | 10.61816 | 36796 ft | 419 kts | 168° |
| 2026-05-06 11:08 | 46.80351 | 10.64333 | 36810 ft | 420 kts | 169° |
| 2026-05-06 11:09 | 46.74752 | 10.66835 | 36835 ft | 421 kts | 169° |
| 2026-05-06 11:09 | 46.69152 | 10.69337 | 36847 ft | 421 kts | 169° |
| 2026-05-06 11:10 | 46.63591 | 10.71807 | 36852 ft | 423 kts | 169° |
| 2026-05-06 11:10 | 46.57929 | 10.74095 | 36678 ft | 420 kts | 173° |
| 2026-05-06 11:10 | 46.55085 | 10.74999 | 36118 ft | 418 kts | 174° |
| 2026-05-06 11:11 | 46.52236 | 10.75815 | 35602 ft | 415 kts | 175° |
| 2026-05-06 11:11 | 46.49410 | 10.76604 | 35129 ft | 412 kts | 176° |
| 2026-05-06 11:11 | 46.46605 | 10.77399 | 34667 ft | 409 kts | 176° |
| 2026-05-06 11:11 | 46.43830 | 10.78212 | 34287 ft | 404 kts | 176° |
| 2026-05-06 11:12 | 46.41096 | 10.79047 | 33955 ft | 399 kts | 176° |
| 2026-05-06 11:12 | 46.38403 | 10.79884 | 33626 ft | 394 kts | 176° |
| 2026-05-06 11:12 | 46.35727 | 10.80715 | 33361 ft | 393 kts | 176° |
| 2026-05-06 11:12 | 46.33045 | 10.81542 | 33097 ft | 395 kts | 176° |
| 2026-05-06 11:13 | 46.30356 | 10.82368 | 32826 ft | 396 kts | 176° |
| 2026-05-06 11:13 | 46.27659 | 10.83192 | 32562 ft | 397 kts | 176° |
| 2026-05-06 11:13 | 46.24949 | 10.84022 | 32258 ft | 398 kts | 176° |
| 2026-05-06 11:13 | 46.22232 | 10.84851 | 31993 ft | 400 kts | 176° |
| 2026-05-06 11:14 | 46.19503 | 10.85685 | 31726 ft | 401 kts | 176° |
| 2026-05-06 11:14 | 46.16776 | 10.86522 | 31474 ft | 400 kts | 176° |
| 2026-05-06 11:14 | 46.14057 | 10.87335 | 31225 ft | 399 kts | 176° |
| 2026-05-06 11:14 | 46.11344 | 10.88151 | 30954 ft | 398 kts | 176° |
| 2026-05-06 11:15 | 46.08643 | 10.88978 | 30670 ft | 396 kts | 176° |
| 2026-05-06 11:15 | 46.05950 | 10.89809 | 30403 ft | 395 kts | 176° |
| 2026-05-06 11:15 | 46.03266 | 10.90636 | 30129 ft | 394 kts | 176° |
| 2026-05-06 11:15 | 46.00595 | 10.91458 | 29832 ft | 392 kts | 175° |
| 2026-05-06 11:16 | 45.97937 | 10.92269 | 29515 ft | 390 kts | 176° |
| 2026-05-06 11:16 | 45.95289 | 10.93071 | 29207 ft | 388 kts | 176° |
| 2026-05-06 11:16 | 45.92651 | 10.93868 | 28900 ft | 386 kts | 176° |
| 2026-05-06 11:16 | 45.90025 | 10.94659 | 28595 ft | 385 kts | 175° |
| 2026-05-06 11:17 | 45.87412 | 10.95447 | 28297 ft | 383 kts | 175° |
| 2026-05-06 11:17 | 45.84808 | 10.96233 | 27997 ft | 382 kts | 175° |
| 2026-05-06 11:17 | 45.82217 | 10.97012 | 27692 ft | 381 kts | 175° |
| 2026-05-06 11:17 | 45.79624 | 10.97798 | 27428 ft | 380 kts | 175° |
| 2026-05-06 11:18 | 45.77050 | 10.98609 | 27144 ft | 377 kts | 175° |
| 2026-05-06 11:18 | 45.74507 | 10.99430 | 26648 ft | 373 kts | 174° |
| 2026-05-06 11:18 | 45.71994 | 11.00242 | 26138 ft | 369 kts | 174° |
| 2026-05-06 11:18 | 45.69498 | 11.01041 | 25642 ft | 366 kts | 174° |
| 2026-05-06 11:19 | 45.67019 | 11.01828 | 25119 ft | 363 kts | 174° |
| 2026-05-06 11:19 | 45.64595 | 11.02594 | 24678 ft | 361 kts | 174° |
| 2026-05-06 11:19 | 45.62143 | 11.03299 | 24201 ft | 358 kts | 176° |
| 2026-05-06 11:19 | 45.59725 | 11.03907 | 23766 ft | 355 kts | 176° |
| 2026-05-06 11:20 | 45.57293 | 11.04477 | 23294 ft | 353 kts | 176° |
| 2026-05-06 11:20 | 45.54885 | 11.05027 | 22835 ft | 349 kts | 176° |
| 2026-05-06 11:20 | 45.52499 | 11.05574 | 22403 ft | 345 kts | 176° |
| 2026-05-06 11:20 | 45.50145 | 11.06124 | 21968 ft | 341 kts | 176° |
| 2026-05-06 11:21 | 45.47815 | 11.06678 | 21529 ft | 338 kts | 176° |
| 2026-05-06 11:21 | 45.45510 | 11.07236 | 21107 ft | 334 kts | 176° |
| 2026-05-06 11:21 | 45.43227 | 11.07794 | 20667 ft | 331 kts | 175° |
| 2026-05-06 11:21 | 45.40969 | 11.08346 | 20230 ft | 328 kts | 175° |
| 2026-05-06 11:22 | 45.38726 | 11.08889 | 19782 ft | 326 kts | 175° |
| 2026-05-06 11:22 | 45.36496 | 11.09427 | 19336 ft | 324 kts | 175° |
| 2026-05-06 11:22 | 45.34273 | 11.09959 | 18882 ft | 323 kts | 175° |
| 2026-05-06 11:22 | 45.32058 | 11.10490 | 18420 ft | 322 kts | 175° |
| 2026-05-06 11:23 | 45.29849 | 11.11019 | 17934 ft | 321 kts | 175° |
| 2026-05-06 11:23 | 45.27651 | 11.11544 | 17455 ft | 319 kts | 175° |
| 2026-05-06 11:23 | 45.25469 | 11.12068 | 16995 ft | 317 kts | 175° |
| 2026-05-06 11:23 | 45.23304 | 11.12590 | 16532 ft | 315 kts | 175° |
| 2026-05-06 11:24 | 45.21153 | 11.13104 | 16083 ft | 313 kts | 175° |
| 2026-05-06 11:24 | 45.19012 | 11.13615 | 15632 ft | 311 kts | 174° |
| 2026-05-06 11:24 | 45.16879 | 11.14125 | 15173 ft | 311 kts | 174° |
| 2026-05-06 11:24 | 45.14749 | 11.14633 | 14725 ft | 310 kts | 174° |
| 2026-05-06 11:25 | 45.12625 | 11.15141 | 14271 ft | 309 kts | 174° |
| 2026-05-06 11:25 | 45.10509 | 11.15648 | 13819 ft | 308 kts | 174° |
| 2026-05-06 11:25 | 45.08396 | 11.16154 | 13336 ft | 308 kts | 174° |
| 2026-05-06 11:25 | 45.06291 | 11.16657 | 12870 ft | 306 kts | 174° |
| 2026-05-06 11:26 | 45.04196 | 11.17155 | 12420 ft | 304 kts | 174° |
| 2026-05-06 11:26 | 45.02114 | 11.17650 | 11971 ft | 303 kts | 174° |
| 2026-05-06 11:26 | 45.00043 | 11.18141 | 11531 ft | 302 kts | 174° |
| 2026-05-06 11:26 | 44.97978 | 11.18632 | 11095 ft | 301 kts | 174° |
| 2026-05-06 11:27 | 44.95944 | 11.19115 | 10662 ft | 300 kts | 174° |
| 2026-05-06 11:27 | 44.93889 | 11.19603 | 10313 ft | 297 kts | 174° |
| 2026-05-06 11:27 | 44.91960 | 11.20068 | 10198 ft | 286 kts | 174° |
| 2026-05-06 11:27 | 44.89973 | 11.20545 | 10054 ft | 276 kts | 174° |
| 2026-05-06 11:28 | 44.88097 | 11.20991 | 9882 ft | 269 kts | 174° |
| 2026-05-06 11:28 | 44.86252 | 11.21424 | 9815 ft | 270 kts | 174° |
| 2026-05-06 11:28 | 44.84410 | 11.21855 | 9585 ft | 262 kts | 174° |
| 2026-05-06 11:28 | 44.82676 | 11.22267 | 9459 ft | 243 kts | 174° |
| 2026-05-06 11:29 | 44.81064 | 11.22657 | 9304 ft | 227 kts | 175° |
| 2026-05-06 11:29 | 44.79545 | 11.23018 | 9109 ft | 214 kts | 175° |
| 2026-05-06 11:29 | 44.78124 | 11.23356 | 8966 ft | 200 kts | 175° |
| 2026-05-06 11:29 | 44.76794 | 11.23509 | 8763 ft | 185 kts | 196° |
| 2026-05-06 11:30 | 44.75736 | 11.22651 | 8439 ft | 178 kts | 232° |
| 2026-05-06 11:30 | 44.75110 | 11.21141 | 8050 ft | 180 kts | 242° |
| 2026-05-06 11:30 | 44.74601 | 11.19523 | 7681 ft | 181 kts | 244° |
| 2026-05-06 11:30 | 44.74114 | 11.17901 | 7327 ft | 180 kts | 244° |
| 2026-05-06 11:31 | 44.73627 | 11.16273 | 6981 ft | 179 kts | 246° |
| 2026-05-06 11:31 | 44.73509 | 11.14543 | 6637 ft | 185 kts | 282° |
| 2026-05-06 11:31 | 44.74171 | 11.12961 | 6314 ft | 192 kts | 302° |
| 2026-05-06 11:31 | 44.75020 | 11.11502 | 5933 ft | 193 kts | 304° |
| 2026-05-06 11:32 | 44.75882 | 11.10058 | 5571 ft | 192 kts | 303° |
| 2026-05-06 11:32 | 44.76451 | 11.08446 | 5206 ft | 180 kts | 270° |
| 2026-05-06 11:32 | 44.76156 | 11.06820 | 4843 ft | 173 kts | 231° |
| 2026-05-06 11:32 | 44.75257 | 11.05683 | 4443 ft | 176 kts | 217° |
| 2026-05-06 11:33 | 44.74234 | 11.04724 | 4088 ft | 177 kts | 214° |
| 2026-05-06 11:33 | 44.73198 | 11.03799 | 4055 ft | 179 kts | 214° |
| 2026-05-06 11:33 | 44.72152 | 11.02869 | 3843 ft | 177 kts | 214° |
| 2026-05-06 11:33 | 44.71106 | 11.01962 | 3456 ft | 178 kts | 209° |
| 2026-05-06 11:34 | 44.69898 | 11.01651 | 3085 ft | 182 kts | 168° |
| 2026-05-06 11:34 | 44.68700 | 11.02284 | 3056 ft | 188 kts | 156° |
| 2026-05-06 11:34 | 44.67521 | 11.03115 | 3049 ft | 190 kts | 155° |
| 2026-05-06 11:34 | 44.66349 | 11.03987 | 3049 ft | 190 kts | 155° |
| 2026-05-06 11:35 | 44.65194 | 11.04879 | 3049 ft | 189 kts | 154° |
| 2026-05-06 11:35 | 44.64047 | 11.05772 | 3064 ft | 189 kts | 153° |
| 2026-05-06 11:35 | 44.62890 | 11.06649 | 3051 ft | 189 kts | 154° |
| 2026-05-06 11:35 | 44.61729 | 11.07521 | 3045 ft | 189 kts | 152° |
| 2026-05-06 11:36 | 44.60762 | 11.08772 | 2999 ft | 194 kts | 126° |
| 2026-05-06 11:36 | 44.60131 | 11.10447 | 2823 ft | 193 kts | 118° |
| 2026-05-06 11:36 | 44.59539 | 11.12128 | 2580 ft | 191 kts | 118° |
| 2026-05-06 11:36 | 44.58956 | 11.13767 | 2359 ft | 190 kts | 117° |
| 2026-05-06 11:37 | 44.58373 | 11.15401 | 2107 ft | 181 kts | 118° |
| 2026-05-06 11:37 | 44.57834 | 11.16907 | 1861 ft | 166 kts | 117° |
| 2026-05-06 11:37 | 44.57335 | 11.18300 | 1654 ft | 154 kts | 117° |
| 2026-05-06 11:37 | 44.56866 | 11.19616 | 1418 ft | 148 kts | 116° |
| 2026-05-06 11:38 | 44.56437 | 11.20905 | 1190 ft | 144 kts | 113° |
| 2026-05-06 11:38 | 44.56002 | 11.22161 | 950 ft | 143 kts | 115° |
| 2026-05-06 11:38 | 44.55518 | 11.23498 | 1091 ft | 166 kts | 115° |
| 2026-05-06 11:38 | 44.54968 | 11.24999 | 1609 ft | 176 kts | 116° |
| 2026-05-06 11:39 | 44.54438 | 11.26570 | 2094 ft | 182 kts | 115° |
| 2026-05-06 11:39 | 44.53935 | 11.28236 | 2601 ft | 189 kts | 113° |
| 2026-05-06 11:39 | 44.53747 | 11.30103 | 3021 ft | 202 kts | 81° |
| 2026-05-06 11:39 | 44.54358 | 11.31857 | 3017 ft | 201 kts | 43° |
| 2026-05-06 11:40 | 44.55572 | 11.32697 | 3008 ft | 197 kts | 3° |
| 2026-05-06 11:40 | 44.56878 | 11.32340 | 3008 ft | 191 kts | 330° |
| 2026-05-06 11:40 | 44.58036 | 11.31434 | 2988 ft | 190 kts | 325° |
| 2026-05-06 11:40 | 44.59145 | 11.30457 | 3004 ft | 187 kts | 324° |
| 2026-05-06 11:41 | 44.60257 | 11.29469 | 3010 ft | 190 kts | 324° |
| 2026-05-06 11:41 | 44.61368 | 11.28456 | 3010 ft | 191 kts | 324° |
| 2026-05-06 11:41 | 44.62478 | 11.27421 | 3010 ft | 191 kts | 324° |
| 2026-05-06 11:41 | 44.63594 | 11.26402 | 3011 ft | 192 kts | 324° |
| 2026-05-06 11:42 | 44.64333 | 11.25728 | 3013 ft | 191 kts | 324° |
| 2026-05-06 11:42 | 44.65449 | 11.24706 | 3052 ft | 191 kts | 323° |
| 2026-05-06 11:42 | 44.66569 | 11.23697 | 3050 ft | 192 kts | 324° |
| 2026-05-06 11:42 | 44.67648 | 11.22604 | 3048 ft | 190 kts | 311° |
| 2026-05-06 11:43 | 44.68511 | 11.21204 | 3046 ft | 189 kts | 305° |
| 2026-05-06 11:43 | 44.69308 | 11.19731 | 3050 ft | 189 kts | 304° |
| 2026-05-06 11:43 | 44.70096 | 11.18258 | 3045 ft | 188 kts | 304° |
| 2026-05-06 11:44 | 44.71667 | 11.15318 | 3046 ft | 189 kts | 304° |
| 2026-05-06 11:44 | 44.72345 | 11.13761 | 3046 ft | 185 kts | 283° |
| 2026-05-06 11:44 | 44.72288 | 11.12007 | 3022 ft | 180 kts | 245° |
| 2026-05-06 11:44 | 44.71496 | 11.10666 | 2750 ft | 181 kts | 219° |
| 2026-05-06 11:45 | 44.70475 | 11.09620 | 2575 ft | 182 kts | 214° |
| 2026-05-06 11:45 | 44.69419 | 11.08610 | 2548 ft | 185 kts | 214° |
| 2026-05-06 11:45 | 44.68358 | 11.07596 | 2550 ft | 184 kts | 214° |
| 2026-05-06 11:45 | 44.67296 | 11.06583 | 2549 ft | 184 kts | 214° |
| 2026-05-06 11:46 | 44.66237 | 11.05574 | 2546 ft | 184 kts | 213° |
| 2026-05-06 11:46 | 44.65056 | 11.04940 | 2552 ft | 185 kts | 187° |
| 2026-05-06 11:46 | 44.63766 | 11.05012 | 2548 ft | 187 kts | 169° |
| 2026-05-06 11:46 | 44.62553 | 11.05664 | 2549 ft | 188 kts | 150° |
| 2026-05-06 11:47 | 44.61551 | 11.06844 | 2551 ft | 190 kts | 131° |
| 2026-05-06 11:47 | 44.60857 | 11.08440 | 2547 ft | 193 kts | 119° |
| 2026-05-06 11:47 | 44.60259 | 11.10118 | 2550 ft | 193 kts | 118° |
| 2026-05-06 11:47 | 44.59660 | 11.11801 | 2530 ft | 193 kts | 118° |
| 2026-05-06 11:48 | 44.59061 | 11.13479 | 2383 ft | 190 kts | 118° |
| 2026-05-06 11:48 | 44.58485 | 11.15088 | 2143 ft | 178 kts | 117° |
| 2026-05-06 11:48 | 44.57947 | 11.16592 | 1913 ft | 167 kts | 117° |
| 2026-05-06 11:48 | 44.57444 | 11.17997 | 1700 ft | 156 kts | 117° |
| 2026-05-06 11:49 | 44.56969 | 11.19321 | 1482 ft | 149 kts | 116° |
| 2026-05-06 11:49 | 44.56510 | 11.20602 | 1285 ft | 146 kts | 116° |
| 2026-05-06 11:49 | 44.56060 | 11.21857 | 1076 ft | 142 kts | 115° |
| 2026-05-06 11:49 | 44.55619 | 11.23097 | 854 ft | 141 kts | 114° |
| 2026-05-06 11:50 | 44.55185 | 11.24316 | 670 ft | 138 kts | 115° |
| 2026-05-06 11:50 | 44.54751 | 11.25514 | 472 ft | 138 kts | 117° |
| 2026-05-06 11:50 | 44.54329 | 11.26713 | 295 ft | 139 kts | 121° |
| 2026-05-06 11:50 | 44.53896 | 11.27903 | 150 ft | 138 kts | 121° |
| 2026-05-06 11:51 | 44.53505 | 11.28949 | 124 ft | 98 kts | 115° |
| 2026-05-06 11:51 | 44.53278 | 11.29574 | 128 ft | 35 kts | 115° |
| 2026-05-06 11:51 | 44.53215 | 11.29770 | 127 ft | 17 kts | 114° |
| 2026-05-06 11:51 | 44.53169 | 11.29906 | 126 ft | 12 kts | 121° |
| 2026-05-06 11:52 | 44.53101 | 11.29949 | 127 ft | 8 kts | 178° |
| 2026-05-06 11:52 | 44.53095 | 11.29946 | 128 ft | 0 kts | 200° |
| 2026-05-06 11:52 | 44.53080 | 11.29912 | 127 ft | 16 kts | 237° |
| 2026-05-06 11:52 | 44.53017 | 11.29794 | 128 ft | 10 kts | 211° |
| 2026-05-06 11:53 | 44.52988 | 11.29758 | 126 ft | 5 kts | 273° |
| 2026-05-06 11:53 | 44.52994 | 11.29702 | 128 ft | 7 kts | 285° |
| 2026-05-06 11:53 | 44.53015 | 11.29643 | 126 ft | 1 kts | 297° |
| 2026-05-06 11:53 | 44.53023 | 11.29621 | 135 ft | 4 kts | 297° |
| 2026-05-06 11:54 | 44.53039 | 11.29578 | 127 ft | 6 kts | 297° |
| 2026-05-06 11:54 | 44.53063 | 11.29514 | 127 ft | 9 kts | 297° |
| 2026-05-06 11:54 | 44.53094 | 11.29430 | 126 ft | 11 kts | 297° |
| 2026-05-06 11:54 | 44.53131 | 11.29328 | 128 ft | 12 kts | 297° |
| 2026-05-06 11:55 | 44.53170 | 11.29219 | 128 ft | 13 kts | 296° |
| 2026-05-06 11:55 | 44.53212 | 11.29103 | 128 ft | 14 kts | 297° |
| 2026-05-06 11:55 | 44.53257 | 11.28979 | 129 ft | 15 kts | 297° |
| 2026-05-06 11:55 | 44.53305 | 11.28848 | 129 ft | 16 kts | 297° |
| 2026-05-06 11:56 | 44.53354 | 11.28710 | 129 ft | 9 kts | 296° |
| 2026-05-06 11:56 | 44.53377 | 11.28641 | 129 ft | 2 kts | 295° |
| 2026-05-06 11:56 | 44.53382 | 11.28625 | 129 ft | 2 kts | 286° |
| 2026-05-06 11:56 | 44.53378 | 11.28603 | 126 ft | 3 kts | 244° |
| 2026-05-06 11:57 | 44.53352 | 11.28581 | 129 ft | 5 kts | 207° |
| 2026-05-06 11:57 | 44.53341 | 11.28573 | 128 ft | 2 kts | 205° |
| 2026-05-06 11:57 | 44.53338 | 11.28570 | 129 ft | 0 kts | 206° |